Time;durP1;ratioP1;P1;durP2;ratioP2;P2;SDS_P1;SDS_P2;PMS_P1;PMS_P2;Temp;Humidity;BMP_temperature;BMP_pressure;BME280_temperature;BME280_humidity;BME280_pressure;Samples;Min_cycle;Max_cycle;Signal;HPM_P1;HPM_P2
2021/09/28 00:00:00;;;;;;;32.30;28.20;;;;;;;;;;5075316;28;20102;-59
2021/09/28 00:02:26;;;;;;;36.92;27.98;;;;;;;;;;5057298;28;20119;-58
2021/09/28 00:04:52;;;;;;;33.60;27.70;;;;;;;;;;5057703;28;20380;-60
2021/09/28 00:07:21;;;;;;;38.50;28.67;;;;;;;;;;5075131;28;20036;-60
2021/09/28 00:09:50;;;;;;;35.45;28.27;;;;;;;;;;5057071;28;20032;-59
2021/09/28 00:12:19;;;;;;;35.22;28.77;;;;;;;;;;5057207;28;20052;-61
2021/09/28 00:14:45;;;;;;;;;;;;;;;;;;5075551;28;20024;-56
2021/09/28 00:17:13;;;;;;;33.85;27.27;;;;;;;;;;5074992;28;20379;-59
2021/09/28 00:19:40;;;;;;;40.53;29.83;;;;;;;;;;5056945;28;20025;-59
2021/09/28 00:22:06;;;;;;;37.42;29.25;;;;;;;;;;5057096;28;20170;-59
2021/09/28 00:24:33;;;;;;;40.47;31.15;;;;;;;;;;5074845;28;20436;-58
2021/09/28 00:26:59;;;;;;;42.20;30.98;;;;;;;;;;5075088;28;20028;-59
2021/09/28 00:29:25;;;;;;;38.15;31.60;;;;;;;;;;5074509;28;20039;-58
2021/09/28 00:31:51;;;;;;;37.22;30.65;;;;;;;;;;5075104;28;20168;-61
2021/09/28 00:34:17;;;;;;;38.85;30.98;;;;;;;;;;5056459;28;20115;-61
2021/09/28 00:36:43;;;;;;;39.30;31.65;;;;;;;;;;5074668;28;20049;-61
2021/09/28 00:39:09;;;;;;;43.55;34.05;;;;;;;;;;5056524;28;20495;-60
2021/09/28 00:41:35;;;;;;;44.25;34.10;;;;;;;;;;5056663;28;20029;-59
2021/09/28 00:44:04;;;;;;;43.72;33.22;;;;;;;;;;5074512;28;20461;-59
2021/09/28 00:46:30;;;;;;;40.80;33.75;;;;;;;;;;5074425;28;20092;-61
2021/09/28 00:48:56;;;;;;;40.13;32.10;;;;;;;;;;5074557;28;20025;-59
2021/09/28 00:51:23;;;;;;;48.58;33.47;;;;;;;;;;5074688;28;20115;-59
2021/09/28 00:53:51;;;;;;;42.53;34.22;;;;;;;;;;5056589;28;20481;-58
2021/09/28 00:56:18;;;;;;;46.92;33.35;;;;;;;;;;5055739;28;20060;-58
2021/09/28 00:58:44;;;;;;;46.25;34.05;;;;;;;;;;5056081;28;20119;-59
2021/09/28 01:01:11;;;;;;;44.72;35.60;;;;;;;;;;5074292;28;20491;-58
2021/09/28 01:03:37;;;;;;;43.00;33.00;;;;;;;;;;5074158;28;20066;-59
2021/09/28 01:06:03;;;;;;;43.08;34.83;;;;;;;;;;5056262;28;20484;-56
2021/09/28 01:08:29;;;;;;;47.65;34.95;;;;;;;;;;5073813;28;20033;-59
2021/09/28 01:10:56;;;;;;;46.63;34.90;;;;;;;;;;5056176;28;20024;-61
2021/09/28 01:13:22;;;;;;;50.15;35.22;;;;;;;;;;5056232;28;20398;-58
2021/09/28 01:16:05;;;;;;;52.50;36.65;;;;;;;;;;5056092;28;20016;-59
2021/09/28 01:18:33;;;;;;;54.67;38.60;;;;;;;;;;5073620;28;20032;-59
2021/09/28 01:21:00;;;;;;;50.65;38.22;;;;;;;;;;5056087;28;20029;-59
2021/09/28 01:23:26;;;;;;;46.75;36.75;;;;;;;;;;5073832;28;20031;-60
2021/09/28 01:25:55;;;;;;;50.22;37.17;;;;;;;;;;5055914;28;20071;-59
2021/09/28 01:28:21;;;;;;;50.15;36.60;;;;;;;;;;5055566;28;20469;-61
2021/09/28 01:30:47;;;;;;;44.25;34.05;;;;;;;;;;5073646;28;20081;-58
2021/09/28 01:33:16;;;;;;;48.65;36.97;;;;;;;;;;5055607;28;20056;-58
2021/09/28 01:35:42;;;;;;;47.35;36.75;;;;;;;;;;5055765;28;20506;-60
2021/09/28 01:38:14;;;;;;;48.85;37.38;;;;;;;;;;5073446;28;20024;-58
2021/09/28 01:40:40;;;;;;;49.15;38.50;;;;;;;;;;5055649;28;20400;-59
2021/09/28 01:43:07;;;;;;;42.92;34.42;;;;;;;;;;5055573;28;20025;-59
2021/09/28 01:45:33;;;;;;;58.70;39.08;;;;;;;;;;5073398;28;20056;-59
2021/09/28 01:47:59;;;;;;;50.97;35.38;;;;;;;;;;5073289;28;20039;-60
2021/09/28 01:50:31;;;;;;;44.95;35.15;;;;;;;;;;5055596;28;20028;-60
2021/09/28 01:52:57;;;;;;;44.50;35.22;;;;;;;;;;5055348;28;20024;-59
2021/09/28 01:55:23;;;;;;;47.67;35.10;;;;;;;;;;5073067;28;20025;-58
2021/09/28 01:57:56;;;;;;;40.25;34.55;;;;;;;;;;5055102;28;20051;-61
2021/09/28 02:00:22;;;;;;;44.55;33.90;;;;;;;;;;5055162;28;20024;-61
2021/09/28 02:02:48;;;;;;;45.92;34.85;;;;;;;;;;5073096;28;20172;-60
2021/09/28 02:05:14;;;;;;;42.72;33.50;;;;;;;;;;5055066;28;20025;-61
2021/09/28 02:07:40;;;;;;;40.20;31.33;;;;;;;;;;5071841;28;20031;-61
2021/09/28 02:10:06;;;;;;;42.03;34.17;;;;;;;;;;5055025;28;20289;-60
2021/09/28 02:12:36;;;;;;;41.22;31.95;;;;;;;;;;5055056;28;20028;-60
2021/09/28 02:15:02;;;;;;;47.72;32.08;;;;;;;;;;5073415;28;20028;-61
2021/09/28 02:17:28;;;;;;;46.90;31.05;;;;;;;;;;5073147;28;20376;-59
2021/09/28 02:19:54;;;;;;;44.65;29.10;;;;;;;;;;5054738;28;20064;-60
2021/09/28 02:22:19;;;;;;;40.08;31.83;;;;;;;;;;5072723;28;20020;-59
2021/09/28 02:24:45;;;;;;;39.40;30.67;;;;;;;;;;5054632;28;20391;-59
2021/09/28 02:27:14;;;;;;;37.38;31.13;;;;;;;;;;5054891;28;20078;-61
2021/09/28 02:29:40;;;;;;;;;;;;;;;;;;5054933;28;20021;-59
2021/09/28 02:32:06;;;;;;;37.05;30.83;;;;;;;;;;5054642;28;19904;-59
2021/09/28 02:34:35;;;;;;;43.17;30.92;;;;;;;;;;5072363;28;20065;-59
2021/09/28 02:37:02;;;;;;;39.72;30.15;;;;;;;;;;5054457;28;20445;-60
2021/09/28 02:39:28;;;;;;;38.05;30.90;;;;;;;;;;5054504;28;20031;-59
2021/09/28 02:41:54;;;;;;;48.63;32.55;;;;;;;;;;5054676;28;20016;-59
2021/09/28 02:44:20;;;;;;;38.42;31.20;;;;;;;;;;5072562;28;20028;-57
2021/09/28 02:46:46;;;;;;;45.70;32.33;;;;;;;;;;5054600;28;20468;-55
2021/09/28 02:49:12;;;;;;;40.25;29.92;;;;;;;;;;5054120;28;20032;-51
2021/09/28 02:51:38;;;;;;;38.75;30.20;;;;;;;;;;5072325;28;20052;-60
2021/09/28 02:54:04;;;;;;;37.92;28.30;;;;;;;;;;5072407;28;20488;-59
2021/09/28 02:56:33;;;;;;;38.65;27.77;;;;;;;;;;5053995;28;20090;-60
2021/09/28 02:58:59;;;;;;;41.03;30.33;;;;;;;;;;5053864;28;20027;-57
2021/09/28 03:01:25;;;;;;;39.05;29.02;;;;;;;;;;5072081;28;20500;-58
2021/09/28 03:03:51;;;;;;;37.33;29.13;;;;;;;;;;5054263;28;20102;-60
2021/09/28 03:06:17;;;;;;;38.50;28.50;;;;;;;;;;5071888;28;20020;-57
2021/09/28 03:08:46;;;;;;;35.72;28.55;;;;;;;;;;5071806;28;20428;-60
2021/09/28 03:11:12;;;;;;;37.67;29.42;;;;;;;;;;5072184;28;20082;-60
2021/09/28 03:13:38;;;;;;;40.47;29.92;;;;;;;;;;5072244;28;20476;-61
2021/09/28 03:16:04;;;;;;;36.97;29.10;;;;;;;;;;5053890;28;20036;-59
2021/09/28 03:18:33;;;;;;;38.58;28.67;;;;;;;;;;5053438;28;20459;-61
2021/09/28 03:21:01;;;;;;;38.35;29.75;;;;;;;;;;5054214;28;20028;-60
2021/09/28 03:23:27;;;;;;;40.45;29.90;;;;;;;;;;5053910;28;20365;-61
2021/09/28 03:25:53;;;;;;;39.65;28.23;;;;;;;;;;5053847;28;20124;-60
2021/09/28 03:28:22;;;;;;;40.30;29.65;;;;;;;;;;5053577;28;20044;-60
2021/09/28 03:30:48;;;;;;;37.67;28.50;;;;;;;;;;5072049;28;20052;-60
2021/09/28 03:33:17;;;;;;;41.20;30.63;;;;;;;;;;5054072;28;20056;-59
2021/09/28 03:35:43;;;;;;;;;;;;;;;;;;5054039;28;20025;-61
2021/09/28 03:38:12;;;;;;;37.50;27.85;;;;;;;;;;5071348;28;20378;-58
2021/09/28 03:40:39;;;;;;;42.15;29.23;;;;;;;;;;5053715;28;20396;-61
2021/09/28 03:43:08;;;;;;;41.85;27.80;;;;;;;;;;5071653;28;20107;-60
2021/09/28 03:45:35;;;;;;;36.97;28.60;;;;;;;;;;5053708;28;20020;-60
2021/09/28 03:48:01;;;;;;;40.17;29.95;;;;;;;;;;5053649;28;20473;-62
2021/09/28 03:50:27;;;;;;;42.38;30.05;;;;;;;;;;5053382;28;20024;-61
2021/09/28 03:52:56;;;;;;;37.92;28.20;;;;;;;;;;5053625;28;20029;-61
2021/09/28 03:55:22;;;;;;;44.08;29.65;;;;;;;;;;5071531;28;20017;-60
2021/09/28 03:57:49;;;;;;;43.80;31.23;;;;;;;;;;5049965;28;20119;-58
2021/09/28 04:00:20;;;;;;;44.00;30.13;;;;;;;;;;5053120;28;20033;-61
2021/09/28 04:02:46;;;;;;;42.35;30.25;;;;;;;;;;5053371;28;20021;-60
2021/09/28 04:05:15;;;;;;;38.92;29.95;;;;;;;;;;5071350;28;20082;-61
2021/09/28 04:07:41;;;;;;;39.15;28.73;;;;;;;;;;5052088;28;20389;-61
2021/09/28 04:10:09;;;;;;;36.17;29.02;;;;;;;;;;5051050;28;20147;-60
2021/09/28 04:12:35;;;;;;;39.67;28.80;;;;;;;;;;5033388;28;20047;-60
2021/09/28 04:15:01;;;;;;;37.72;28.27;;;;;;;;;;5042480;28;20107;-60
2021/09/28 04:17:28;;;;;;;39.53;28.33;;;;;;;;;;5071282;28;20020;-62
2021/09/28 04:19:54;;;;;;;38.20;28.55;;;;;;;;;;5071097;28;20435;-62
2021/09/28 04:22:21;;;;;;;41.13;30.80;;;;;;;;;;5070157;28;20029;-60
2021/09/28 04:24:49;;;;;;;38.17;29.35;;;;;;;;;;5037057;28;20029;-59
2021/09/28 04:27:15;;;;;;;41.72;28.30;;;;;;;;;;5071058;28;20032;-60
2021/09/28 04:29:46;;;;;;;36.38;25.80;;;;;;;;;;5069653;28;20119;-61
2021/09/28 04:32:13;;;;;;;43.28;27.20;;;;;;;;;;5063755;28;20029;-61
2021/09/28 04:34:42;;;;;;;37.10;26.92;;;;;;;;;;5036928;28;20500;-61
2021/09/28 04:37:11;;;;;;;34.33;26.85;;;;;;;;;;5036518;28;20025;-60
2021/09/28 04:39:37;;;;;;;40.33;27.83;;;;;;;;;;5036074;28;20025;-60
2021/09/28 04:42:06;;;;;;;34.35;27.13;;;;;;;;;;5054459;28;20430;-59
2021/09/28 04:44:33;;;;;;;54.17;27.92;;;;;;;;;;5054300;28;20044;-61
2021/09/28 04:46:59;;;;;;;34.95;25.20;;;;;;;;;;5036605;28;20017;-63
2021/09/28 04:49:25;;;;;;;35.80;26.13;;;;;;;;;;5053822;28;20170;-62
2021/09/28 04:51:51;;;;;;;34.95;25.90;;;;;;;;;;5054108;28;20416;-62
2021/09/28 04:54:17;;;;;;;37.95;27.33;;;;;;;;;;5054170;28;20100;-62
2021/09/28 04:56:43;;;;;;;33.22;25.67;;;;;;;;;;5041318;22;20420;-59
2021/09/28 04:59:08;;;;;;;33.35;25.75;;;;;;;;;;4941401;28;20032;-60
2021/09/28 05:01:34;;;;;;;37.78;26.67;;;;;;;;;;4951633;28;20368;-61
2021/09/28 05:04:00;;;;;;;35.88;26.52;;;;;;;;;;4951562;28;20042;-62
2021/09/28 05:06:26;;;;;;;32.05;25.73;;;;;;;;;;4966110;28;20028;-60
2021/09/28 05:08:52;;;;;;;30.52;23.80;;;;;;;;;;4951099;28;20034;-61
2021/09/28 05:11:18;;;;;;;32.22;24.77;;;;;;;;;;4965974;28;20466;-60
2021/09/28 05:13:44;;;;;;;38.60;25.80;;;;;;;;;;4966307;28;20027;-60
2021/09/28 05:16:10;;;;;;;35.75;25.98;;;;;;;;;;4966405;28;20043;-60
2021/09/28 05:18:39;;;;;;;36.45;24.98;;;;;;;;;;4965750;28;20035;-61
2021/09/28 05:21:20;;;;;;;37.65;24.80;;;;;;;;;;4951075;28;20102;-62
2021/09/28 05:23:55;;;;;;;31.02;24.17;;;;;;;;;;4966040;28;20054;-62
2021/09/28 05:26:21;;;;;;;34.72;24.67;;;;;;;;;;4966020;28;20502;-60
2021/09/28 05:28:56;;;;;;;40.25;25.30;;;;;;;;;;4965567;28;20184;-60
2021/09/28 05:31:22;;;;;;;36.63;25.77;;;;;;;;;;4951544;28;20110;-56
2021/09/28 05:33:48;;;;;;;32.25;24.20;;;;;;;;;;4952452;28;20114;-60
2021/09/28 05:36:14;;;;;;;37.28;26.77;;;;;;;;;;4932083;29;20028;-60
2021/09/28 05:38:43;;;;;;;36.25;24.77;;;;;;;;;;4946164;28;20023;-62
2021/09/28 05:41:09;;;;;;;31.08;24.58;;;;;;;;;;4931692;29;20059;-61
2021/09/28 05:43:36;;;;;;;33.67;26.25;;;;;;;;;;4931611;29;20514;-60
2021/09/28 05:46:04;;;;;;;32.90;24.45;;;;;;;;;;4931925;29;20443;-60
2021/09/28 05:48:30;;;;;;;38.22;27.02;;;;;;;;;;4930881;29;20027;-59
2021/09/28 05:50:56;;;;;;;41.25;26.85;;;;;;;;;;4931245;29;20085;-60
2021/09/28 05:53:22;;;;;;;41.28;26.73;;;;;;;;;;4945783;28;20035;-61
2021/09/28 05:55:48;;;;;;;35.70;24.55;;;;;;;;;;4945458;28;20114;-60
2021/09/28 05:58:14;;;;;;;35.95;26.35;;;;;;;;;;4930632;29;20077;-60
2021/09/28 06:00:40;;;;;;;35.50;26.08;;;;;;;;;;4948157;28;20111;-56
2021/09/28 06:03:07;;;;;;;36.58;24.95;;;;;;;;;;4950383;29;20031;-60
2021/09/28 06:05:36;;;;;;;38.25;25.35;;;;;;;;;;4950506;28;20420;-55
2021/09/28 06:08:02;;;;;;;35.13;25.98;;;;;;;;;;4950129;28;20024;-61
2021/09/28 06:10:28;;;;;;;33.70;25.98;;;;;;;;;;4950145;29;20115;-61
2021/09/28 06:12:54;;;;;;;36.28;25.65;;;;;;;;;;4964667;28;20070;-60
2021/09/28 06:15:20;;;;;;;34.42;26.55;;;;;;;;;;4950409;28;20039;-56
2021/09/28 06:17:46;;;;;;;38.83;27.20;;;;;;;;;;4949916;28;20071;-58
2021/09/28 06:20:12;;;;;;;34.58;26.08;;;;;;;;;;4964297;28;20046;-67
2021/09/28 06:22:38;;;;;;;33.90;25.05;;;;;;;;;;4950269;28;20027;-61
2021/09/28 06:25:05;;;;;;;38.90;25.67;;;;;;;;;;4949985;29;20032;-60
2021/09/28 06:27:34;;;;;;;40.05;24.55;;;;;;;;;;4964861;28;20089;-62
2021/09/28 06:30:03;;;;;;;38.53;24.48;;;;;;;;;;4949845;29;20034;-61
2021/09/28 06:35:31;;;;;;;34.45;23.73;;;;;;;;;;4946646;28;20054;-62
2021/09/28 06:38:06;;;;;;;44.55;26.95;;;;;;;;;;4964560;28;20114;-62
2021/09/28 06:41:03;;;;;;;37.45;23.08;;;;;;;;;;4950094;28;20418;-62
2021/09/28 06:43:35;;;;;;;32.20;22.90;;;;;;;;;;4949382;28;20099;-62
2021/09/28 06:46:06;;;;;;;34.45;23.75;;;;;;;;;;4949825;28;20553;-59
2021/09/28 06:48:32;;;;;;;34.25;24.10;;;;;;;;;;4964583;28;20376;-59
2021/09/28 06:51:18;;;;;;;33.30;21.70;;;;;;;;;;4949795;28;20137;-62
2021/09/28 06:53:55;;;;;;;26.70;21.08;;;;;;;;;;4945578;28;20038;-62
2021/09/28 06:56:21;;;;;;;29.13;21.23;;;;;;;;;;4964480;28;20027;-62
2021/09/28 06:58:52;;;;;;;34.30;22.20;;;;;;;;;;4964367;28;20031;-61
2021/09/28 07:01:26;;;;;;;33.50;22.02;;;;;;;;;;4949822;29;20027;-60
2021/09/28 07:03:53;;;;;;;31.20;22.95;;;;;;;;;;4949361;28;20491;-62
2021/09/28 07:06:19;;;;;;;29.42;21.35;;;;;;;;;;4949680;28;20034;-62
2021/09/28 07:08:45;;;;;;;32.42;22.83;;;;;;;;;;4949410;29;20433;-59
2021/09/28 07:11:11;;;;;;;32.30;20.75;;;;;;;;;;4949862;28;20028;-60
2021/09/28 07:13:37;;;;;;;28.13;19.20;;;;;;;;;;4949870;28;20027;-61
2021/09/28 07:16:03;;;;;;;28.98;20.30;;;;;;;;;;4949648;28;20216;-61
2021/09/28 07:18:29;;;;;;;29.98;20.63;;;;;;;;;;4964139;28;20031;-61
2021/09/28 07:20:55;;;;;;;33.40;20.67;;;;;;;;;;4949172;28;20042;-57
2021/09/28 07:23:23;;;;;;;31.67;21.20;;;;;;;;;;4949670;29;20089;-60
2021/09/28 07:25:49;;;;;;;27.48;19.08;;;;;;;;;;4950145;28;20472;-62
2021/09/28 07:28:15;;;;;;;26.27;18.45;;;;;;;;;;4946512;28;20111;-61
2021/09/28 07:30:41;;;;;;;30.05;18.40;;;;;;;;;;4925850;28;20540;-61
2021/09/28 07:33:07;;;;;;;24.08;16.10;;;;;;;;;;4911444;28;20036;-62
2021/09/28 07:35:33;;;;;;;30.50;17.58;;;;;;;;;;4911786;28;20094;-64
2021/09/28 07:37:59;;;;;;;30.20;17.45;;;;;;;;;;4911437;28;20523;-64
2021/09/28 07:40:25;;;;;;;27.08;18.13;;;;;;;;;;4910025;28;20039;-63
2021/09/28 07:42:51;;;;;;;27.48;17.52;;;;;;;;;;4911200;28;20103;-65
2021/09/28 07:45:17;;;;;;;24.73;16.15;;;;;;;;;;4911417;28;20472;-66
2021/09/28 07:47:43;;;;;;;26.75;15.82;;;;;;;;;;4911018;28;20060;-65
2021/09/28 07:50:10;;;;;;;25.90;14.68;;;;;;;;;;4909842;28;20043;-65
2021/09/28 07:52:36;;;;;;;27.55;15.27;;;;;;;;;;4911462;29;20456;-66
2021/09/28 07:55:02;;;;;;;26.80;13.77;;;;;;;;;;4911330;28;20099;-66
2021/09/28 07:57:28;;;;;;;23.10;12.43;;;;;;;;;;4909762;28;20036;-65
2021/09/28 07:59:54;;;;;;;26.00;13.07;;;;;;;;;;4931686;28;20496;-65
2021/09/28 08:02:22;;;;;;;25.13;12.15;;;;;;;;;;4963888;28;20079;-65
2021/09/28 08:04:48;;;;;;;30.60;10.57;;;;;;;;;;4949473;28;20085;-66
2021/09/28 08:07:15;;;;;;;20.55;10.25;;;;;;;;;;4951444;28;20030;-65
2021/09/28 08:09:41;;;;;;;22.90;10.32;;;;;;;;;;4952046;28;20023;-65
2021/09/28 08:12:10;;;;;;;21.70;10.38;;;;;;;;;;4967129;28;20023;-63
2021/09/28 08:14:36;;;;;;;22.52;8.68;;;;;;;;;;4967209;28;20034;-65
2021/09/28 08:17:03;;;;;;;25.33;10.93;;;;;;;;;;4952267;28;20402;-64
2021/09/28 08:19:29;;;;;;;25.98;9.50;;;;;;;;;;4952041;28;20028;-64
2021/09/28 08:21:55;;;;;;;20.63;9.75;;;;;;;;;;4952214;28;20453;-65
2021/09/28 08:24:21;;;;;;;26.15;9.40;;;;;;;;;;4952288;28;20403;-66
2021/09/28 08:29:32;;;;;;;19.75;9.00;;;;;;;;;;4951936;28;20123;-64
2021/09/28 08:32:01;;;;;;;25.33;10.50;;;;;;;;;;4967147;28;20081;-65
2021/09/28 08:34:26;;;;;;;24.30;8.60;;;;;;;;;;4951870;28;20094;-64
2021/09/28 08:36:52;;;;;;;25.40;8.60;;;;;;;;;;4967047;28;20475;-64
2021/09/28 08:39:18;;;;;;;25.63;9.57;;;;;;;;;;4951636;28;20034;-64
2021/09/28 08:41:46;;;;;;;23.55;8.73;;;;;;;;;;4952150;28;20051;-64
2021/09/28 08:44:15;;;;;;;23.48;8.35;;;;;;;;;;4952062;28;20398;-66
2021/09/28 08:46:41;;;;;;;24.33;8.13;;;;;;;;;;4952527;28;20035;-64
2021/09/28 08:49:07;;;;;;;24.23;8.88;;;;;;;;;;4951687;28;20106;-65
2021/09/28 08:51:39;;;;;;;22.35;8.95;;;;;;;;;;4952029;28;20433;-65
2021/09/28 08:54:05;;;;;;;24.92;8.88;;;;;;;;;;4951949;28;20059;-63
2021/09/28 08:56:31;;;;;;;23.25;8.73;;;;;;;;;;4951700;28;20031;-63
2021/09/28 08:58:59;;;;;;;21.15;7.68;;;;;;;;;;4951718;28;20128;-63
2021/09/28 09:01:25;;;;;;;24.95;9.13;;;;;;;;;;4952102;28;20055;-61
2021/09/28 09:03:52;;;;;;;22.98;8.50;;;;;;;;;;4966424;28;20511;-62
2021/09/28 09:06:18;;;;;;;23.92;8.25;;;;;;;;;;4966684;28;20043;-61
2021/09/28 09:08:48;;;;;;;23.33;8.40;;;;;;;;;;4966509;28;20567;-62
2021/09/28 09:11:16;;;;;;;25.83;8.40;;;;;;;;;;4966750;28;20094;-62
2021/09/28 09:13:42;;;;;;;26.58;9.10;;;;;;;;;;4951678;28;20019;-63
2021/09/28 09:16:10;;;;;;;25.38;8.55;;;;;;;;;;4951720;28;20034;-63
2021/09/28 09:18:37;;;;;;;24.05;8.50;;;;;;;;;;4965857;28;20031;-62
2021/09/28 09:21:04;;;;;;;23.52;9.43;;;;;;;;;;4951648;28;20027;-64
2021/09/28 09:23:37;;;;;;;22.92;9.52;;;;;;;;;;4951342;28;20027;-61
2021/09/28 09:26:05;;;;;;;22.55;8.15;;;;;;;;;;4951376;28;20057;-61
2021/09/28 09:28:32;;;;;;;22.42;8.43;;;;;;;;;;4951318;28;20023;-62
2021/09/28 09:31:08;;;;;;;23.50;7.93;;;;;;;;;;4951578;28;20107;-62
2021/09/28 09:33:34;;;;;;;23.27;9.05;;;;;;;;;;4951468;28;20032;-62
2021/09/28 09:36:00;;;;;;;21.58;8.25;;;;;;;;;;4966646;28;20031;-64
2021/09/28 09:38:26;;;;;;;27.73;8.95;;;;;;;;;;4950954;28;20027;-64
2021/09/28 09:40:53;;;;;;;24.55;9.48;;;;;;;;;;4951661;28;20031;-63
2021/09/28 09:43:28;;;;;;;19.17;8.60;;;;;;;;;;4951433;28;20034;-63
2021/09/28 09:46:06;;;;;;;22.55;8.35;;;;;;;;;;4965132;28;20038;-62
2021/09/28 09:48:34;;;;;;;25.67;9.93;;;;;;;;;;4963573;28;20161;-62
2021/09/28 09:51:14;;;;;;;24.20;8.23;;;;;;;;;;4952959;28;20024;-62
2021/09/28 09:53:58;;;;;;;22.10;8.30;;;;;;;;;;4951091;28;20350;-63
2021/09/28 09:56:40;;;;;;;23.70;8.30;;;;;;;;;;4950831;28;20091;-63
2021/09/28 09:59:06;;;;;;;20.58;7.95;;;;;;;;;;4965171;28;20519;-63
2021/09/28 10:01:35;;;;;;;23.45;9.20;;;;;;;;;;4950661;28;20110;-63
2021/09/28 10:04:02;;;;;;;22.00;8.07;;;;;;;;;;4950863;28;20030;-64
2021/09/28 10:06:28;;;;;;;20.80;8.00;;;;;;;;;;4965334;28;20113;-62
2021/09/28 10:08:54;;;;;;;21.13;8.27;;;;;;;;;;4951100;28;20614;-63
2021/09/28 10:11:20;;;;;;;22.20;8.07;;;;;;;;;;4950795;28;20120;-65
2021/09/28 10:13:49;;;;;;;23.75;8.98;;;;;;;;;;4950451;28;20468;-62
2021/09/28 10:16:35;;;;;;;21.13;7.88;;;;;;;;;;4950422;28;20070;-62
2021/09/28 10:19:01;;;;;;;22.20;8.32;;;;;;;;;;4950090;28;20039;-62
2021/09/28 10:21:34;;;;;;;24.35;8.30;;;;;;;;;;4950159;28;20032;-63
2021/09/28 10:24:19;;;;;;;20.10;7.40;;;;;;;;;;4950214;28;20237;-62
2021/09/28 10:26:45;;;;;;;20.33;8.35;;;;;;;;;;4964513;28;20035;-61
2021/09/28 10:29:38;;;;;;;22.13;9.27;;;;;;;;;;4963779;28;20038;-63
2021/09/28 10:32:25;;;;;;;27.40;8.77;;;;;;;;;;4964435;28;20035;-63
2021/09/28 10:35:07;;;;;;;22.02;8.52;;;;;;;;;;4950257;28;20482;-63
2021/09/28 10:37:39;;;;;;;21.67;8.55;;;;;;;;;;4949823;28;20031;-61
2021/09/28 10:40:06;;;;;;;23.13;9.00;;;;;;;;;;4950011;28;20031;-63
2021/09/28 10:42:48;;;;;;;21.45;8.45;;;;;;;;;;4950409;28;20038;-65
2021/09/28 10:45:38;;;;;;;19.77;9.38;;;;;;;;;;4964575;28;20034;-64
2021/09/28 10:48:07;;;;;;;23.13;9.82;;;;;;;;;;4957847;28;20046;-63
2021/09/28 10:50:34;;;;;;;21.25;9.02;;;;;;;;;;4949962;28;20027;-62
2021/09/28 10:53:06;;;;;;;18.10;8.98;;;;;;;;;;4950196;28;20069;-64
2021/09/28 10:55:39;;;;;;;20.30;9.45;;;;;;;;;;4964684;28;20023;-63
2021/09/28 10:58:15;;;;;;;20.13;8.90;;;;;;;;;;5033570;23;20182;-64
2021/09/28 11:00:41;;;;;;;20.58;9.65;;;;;;;;;;5067622;28;20016;-62
2021/09/28 11:03:08;;;;;;;21.88;9.82;;;;;;;;;;5071365;28;20071;-63
2021/09/28 11:05:40;;;;;;;22.98;9.30;;;;;;;;;;5071164;28;20095;-57
2021/09/28 11:08:06;;;;;;;24.63;9.57;;;;;;;;;;5069942;28;20039;-59
2021/09/28 11:10:33;;;;;;;23.77;10.93;;;;;;;;;;5070409;28;20021;-63
2021/09/28 11:13:04;;;;;;;20.52;10.65;;;;;;;;;;5072081;28;20071;-63
2021/09/28 11:15:30;;;;;;;22.35;9.80;;;;;;;;;;5070923;28;20384;-59
2021/09/28 11:18:06;;;;;;;24.08;9.50;;;;;;;;;;5072044;28;20101;-61
2021/09/28 11:20:32;;;;;;;20.55;9.50;;;;;;;;;;5072549;28;20024;-60
2021/09/28 11:22:59;;;;;;;21.73;9.32;;;;;;;;;;5070501;28;20142;-63
2021/09/28 11:34:37;;;;;;;17.42;8.95;;;;;;;;;;5071949;28;20023;-61
2021/09/28 11:37:03;;;;;;;18.65;10.25;;;;;;;;;;5071609;28;20047;-62
2021/09/28 11:39:31;;;;;;;23.33;9.85;;;;;;;;;;5071476;28;20035;-56
2021/09/28 11:41:57;;;;;;;20.00;9.73;;;;;;;;;;5074428;28;20511;-62
2021/09/28 11:44:31;;;;;;;19.13;10.48;;;;;;;;;;5074503;28;20028;-60
2021/09/28 11:46:59;;;;;;;22.17;11.15;;;;;;;;;;5074061;28;20078;-62
2021/09/28 11:49:25;;;;;;;22.58;11.30;;;;;;;;;;5075282;28;20076;-58
2021/09/28 11:51:52;;;;;;;20.30;11.20;;;;;;;;;;5075742;28;20051;-59
2021/09/28 11:54:18;;;;;;;19.95;11.15;;;;;;;;;;5074308;28;20075;-61
2021/09/28 11:56:45;;;;;;;19.50;11.15;;;;;;;;;;5075586;28;20021;-61
2021/09/28 11:59:13;;;;;;;20.25;10.82;;;;;;;;;;5073970;28;20092;-60
2021/09/28 12:01:39;;;;;;;21.15;11.82;;;;;;;;;;5075564;28;20059;-61
2021/09/28 12:04:43;;;;;;;22.30;11.63;;;;;;;;;;5075444;28;20020;-60
2021/09/28 12:07:56;;;;;;;20.92;11.32;;;;;;;;;;5075079;28;20020;-59
2021/09/28 12:09:57;;;;;;;22.02;11.18;;;;;;;;;;5074830;28;20115;-52
2021/09/28 12:12:25;;;;;;;20.23;11.45;;;;;;;;;;5075605;28;20685;-58
2021/09/28 12:14:53;;;;;;;22.92;11.48;;;;;;;;;;5073768;28;20033;-59
2021/09/28 12:17:19;;;;;;;21.65;11.75;;;;;;;;;;5073899;28;20399;-58
2021/09/28 12:19:48;;;;;;;16.75;11.32;;;;;;;;;;5073842;28;20031;-61
2021/09/28 12:22:26;;;;;;;27.58;12.95;;;;;;;;;;5075198;28;20090;-61
2021/09/28 12:24:55;;;;;;;23.10;12.55;;;;;;;;;;5074114;28;20029;-62
2021/09/28 12:27:21;;;;;;;19.85;12.65;;;;;;;;;;5074997;28;20425;-60
2021/09/28 12:29:49;;;;;;;24.75;13.27;;;;;;;;;;5072264;28;20342;-60
2021/09/28 12:32:27;;;;;;;22.67;14.10;;;;;;;;;;5036778;28;20477;-57
2021/09/28 12:35:04;;;;;;;19.20;12.60;;;;;;;;;;5037630;28;20026;-57
2021/09/28 12:37:30;;;;;;;18.70;11.93;;;;;;;;;;5033082;28;20031;-60
2021/09/28 12:40:07;;;;;;;21.17;12.52;;;;;;;;;;5033995;28;20032;-61
2021/09/28 12:42:34;;;;;;;22.38;12.45;;;;;;;;;;4700850;28;9999843;-63
2021/09/28 12:45:02;;;;;;;20.33;12.75;;;;;;;;;;5051724;28;20057;-61
2021/09/28 12:47:29;;;;;;;19.35;13.18;;;;;;;;;;5050343;28;20035;-62
2021/09/28 12:49:58;;;;;;;21.23;13.50;;;;;;;;;;5051174;28;20083;-63
2021/09/28 12:52:24;;;;;;;24.05;13.32;;;;;;;;;;5050217;28;20039;-58
2021/09/28 12:54:50;;;;;;;22.27;12.65;;;;;;;;;;5022390;28;20745;-62
2021/09/28 12:57:16;;;;;;;19.95;12.18;;;;;;;;;;5039786;28;20040;-58
2021/09/28 12:59:42;;;;;;;18.35;12.40;;;;;;;;;;5047415;28;20019;-60
2021/09/28 13:02:09;;;;;;;19.58;12.38;;;;;;;;;;5041191;28;20017;-60
2021/09/28 13:04:36;;;;;;;18.17;12.40;;;;;;;;;;5043336;28;20035;-64
2021/09/28 13:07:06;;;;;;;19.90;12.02;;;;;;;;;;5053603;28;20393;-61
2021/09/28 13:09:33;;;;;;;21.33;12.50;;;;;;;;;;5053320;28;20465;-63
2021/09/28 13:11:59;;;;;;;19.88;12.70;;;;;;;;;;5053538;28;20017;-63
2021/09/28 13:14:28;;;;;;;22.33;12.82;;;;;;;;;;5052728;28;20048;-62
2021/09/28 13:16:54;;;;;;;18.02;12.98;;;;;;;;;;5052447;28;20024;-62
2021/09/28 13:19:20;;;;;;;17.70;12.93;;;;;;;;;;4701798;28;9999921;-57
2021/09/28 13:21:46;;;;;;;17.38;12.20;;;;;;;;;;5050966;28;20036;-61
2021/09/28 13:24:12;;;;;;;20.08;12.40;;;;;;;;;;5050806;28;20032;-59
2021/09/28 13:26:38;;;;;;;21.60;12.20;;;;;;;;;;5049505;28;20039;-63
2021/09/28 13:29:04;;;;;;;18.52;12.48;;;;;;;;;;5050617;28;20037;-63
2021/09/28 13:31:30;;;;;;;22.35;13.27;;;;;;;;;;5049399;28;20021;-60
2021/09/28 13:33:56;;;;;;;20.83;13.30;;;;;;;;;;5049636;28;20575;-58
2021/09/28 13:36:23;;;;;;;18.65;12.57;;;;;;;;;;5050463;28;20367;-63
2021/09/28 13:38:49;;;;;;;20.52;13.02;;;;;;;;;;5050185;28;20396;-59
2021/09/28 13:41:15;;;;;;;18.17;12.52;;;;;;;;;;5050884;28;20028;-63
2021/09/28 13:43:41;;;;;;;20.85;12.43;;;;;;;;;;5049547;28;20096;-63
2021/09/28 13:46:08;;;;;;;18.23;11.80;;;;;;;;;;5050342;28;20387;-61
2021/09/28 13:48:34;;;;;;;20.83;12.27;;;;;;;;;;5048700;28;20091;-60
2021/09/28 13:51:00;;;;;;;22.95;13.85;;;;;;;;;;5050509;28;20021;-63
2021/09/28 13:53:27;;;;;;;21.70;12.32;;;;;;;;;;5050519;28;20032;-63
2021/09/28 13:55:53;;;;;;;21.83;12.45;;;;;;;;;;5049402;28;20452;-63
2021/09/28 13:58:19;;;;;;;20.50;12.68;;;;;;;;;;5048227;28;20036;-62
2021/09/28 14:00:47;;;;;;;18.10;12.15;;;;;;;;;;5068120;28;20479;-61
2021/09/28 14:03:13;;;;;;;19.08;12.43;;;;;;;;;;5070253;28;20017;-63
2021/09/28 14:05:39;;;;;;;18.33;12.02;;;;;;;;;;5068474;28;20386;-62
2021/09/28 14:08:05;;;;;;;17.65;11.23;;;;;;;;;;5067595;28;20024;-60
2021/09/28 14:16:38;;;;;;;20.60;11.60;;;;;;;;;;5045772;28;20126;-61
2021/09/28 14:19:04;;;;;;;19.08;11.40;;;;;;;;;;5031849;28;20033;-63
2021/09/28 14:21:30;;;;;;;21.70;11.50;;;;;;;;;;5032490;28;20025;-59
2021/09/28 14:23:56;;;;;;;21.92;11.68;;;;;;;;;;5050247;28;20039;-60
2021/09/28 14:26:22;;;;;;;21.88;12.00;;;;;;;;;;5049989;28;20056;-61
2021/09/28 14:28:48;;;;;;;19.40;11.70;;;;;;;;;;5031680;28;20059;-61
2021/09/28 14:31:14;;;;;;;18.85;11.38;;;;;;;;;;5026338;28;20556;-62
2021/09/28 14:33:40;;;;;;;18.67;11.15;;;;;;;;;;5035553;28;20048;-60
2021/09/28 14:36:06;;;;;;;18.50;12.02;;;;;;;;;;5012687;28;20025;-61
2021/09/28 14:38:34;;;;;;;20.52;12.27;;;;;;;;;;5049545;28;20033;-59
2021/09/28 14:41:00;;;;;;;20.50;12.15;;;;;;;;;;5048643;28;20024;-55
2021/09/28 14:43:26;;;;;;;21.27;12.10;;;;;;;;;;5031219;28;20037;-61
2021/09/28 14:45:52;;;;;;;20.17;12.13;;;;;;;;;;5049053;28;20035;-57